sensor_id;sensor_type;location;lat;lon;timestamp;temperature;humidity
78611;SHT30;67932;50.474;4.436;2023-06-24T00:01:32;19.21;70.41
78611;SHT30;67932;50.474;4.436;2023-06-24T00:03:59;19.15;71.08
78611;SHT30;67932;50.474;4.436;2023-06-24T00:06:26;19.08;70.51
78611;SHT30;67932;50.474;4.436;2023-06-24T00:08:52;19.12;70.88
78611;SHT30;67932;50.474;4.436;2023-06-24T00:11:22;19.07;70.79
78611;SHT30;67932;50.474;4.436;2023-06-24T00:13:49;18.98;71.05
78611;SHT30;67932;50.474;4.436;2023-06-24T00:16:15;19.04;71.40
78611;SHT30;67932;50.474;4.436;2023-06-24T00:18:41;18.94;72.58
78611;SHT30;67932;50.474;4.436;2023-06-24T00:21:07;18.93;72.67
78611;SHT30;67932;50.474;4.436;2023-06-24T00:23:34;18.94;72.43
78611;SHT30;67932;50.474;4.436;2023-06-24T00:26:01;18.94;72.88
78611;SHT30;67932;50.474;4.436;2023-06-24T00:28:27;18.84;73.31
78611;SHT30;67932;50.474;4.436;2023-06-24T00:30:54;18.81;73.70
78611;SHT30;67932;50.474;4.436;2023-06-24T00:33:20;18.67;74.98
78611;SHT30;67932;50.474;4.436;2023-06-24T00:35:47;18.56;75.14
78611;SHT30;67932;50.474;4.436;2023-06-24T00:38:14;18.59;73.70
78611;SHT30;67932;50.474;4.436;2023-06-24T00:40:40;18.64;73.67
78611;SHT30;67932;50.474;4.436;2023-06-24T00:43:07;18.64;73.27
78611;SHT30;67932;50.474;4.436;2023-06-24T00:45:33;18.57;73.77
78611;SHT30;67932;50.474;4.436;2023-06-24T00:48:00;18.54;73.58
78611;SHT30;67932;50.474;4.436;2023-06-24T00:50:27;18.54;72.92
78611;SHT30;67932;50.474;4.436;2023-06-24T00:52:53;18.53;73.24
78611;SHT30;67932;50.474;4.436;2023-06-24T00:55:20;18.54;72.33
78611;SHT30;67932;50.474;4.436;2023-06-24T00:57:49;18.50;72.25
78611;SHT30;67932;50.474;4.436;2023-06-24T01:00:19;18.46;71.73
78611;SHT30;67932;50.474;4.436;2023-06-24T01:02:49;18.46;71.48
78611;SHT30;67932;50.474;4.436;2023-06-24T01:05:16;18.43;71.79
78611;SHT30;67932;50.474;4.436;2023-06-24T01:07:43;18.36;72.01
78611;SHT30;67932;50.474;4.436;2023-06-24T01:10:10;18.32;72.21
78611;SHT30;67932;50.474;4.436;2023-06-24T01:12:40;18.28;72.43
78611;SHT30;67932;50.474;4.436;2023-06-24T01:15:07;18.28;72.95
78611;SHT30;67932;50.474;4.436;2023-06-24T01:17:39;18.19;73.15
78611;SHT30;67932;50.474;4.436;2023-06-24T01:20:17;18.08;73.48
78611;SHT30;67932;50.474;4.436;2023-06-24T01:28:25;17.83;75.30
78611;SHT30;67932;50.474;4.436;2023-06-24T01:36:26;17.79;74.12
78611;SHT30;67932;50.474;4.436;2023-06-24T01:39:02;17.78;74.10
78611;SHT30;67932;50.474;4.436;2023-06-24T01:41:38;17.79;73.72
78611;SHT30;67932;50.474;4.436;2023-06-24T01:44:08;17.76;73.37
78611;SHT30;67932;50.474;4.436;2023-06-24T01:46:36;17.75;73.73
78611;SHT30;67932;50.474;4.436;2023-06-24T01:49:05;17.74;73.77
78611;SHT30;67932;50.474;4.436;2023-06-24T01:51:35;17.64;74.24
78611;SHT30;67932;50.474;4.436;2023-06-24T01:54:07;17.62;74.31
78611;SHT30;67932;50.474;4.436;2023-06-24T01:56:37;17.66;73.78
78611;SHT30;67932;50.474;4.436;2023-06-24T01:59:05;17.58;73.88
78611;SHT30;67932;50.474;4.436;2023-06-24T02:01:36;17.66;73.39
78611;SHT30;67932;50.474;4.436;2023-06-24T02:04:08;17.58;74.38
78611;SHT30;67932;50.474;4.436;2023-06-24T02:06:36;17.54;73.62
78611;SHT30;67932;50.474;4.436;2023-06-24T02:09:05;17.54;74.21
78611;SHT30;67932;50.474;4.436;2023-06-24T02:11:33;17.42;74.60
78611;SHT30;67932;50.474;4.436;2023-06-24T02:14:01;17.31;74.31
78611;SHT30;67932;50.474;4.436;2023-06-24T02:16:28;17.42;73.60
78611;SHT30;67932;50.474;4.436;2023-06-24T02:18:56;17.41;73.25
78611;SHT30;67932;50.474;4.436;2023-06-24T02:21:24;17.41;74.03
78611;SHT30;67932;50.474;4.436;2023-06-24T02:23:52;17.39;73.55
78611;SHT30;67932;50.474;4.436;2023-06-24T02:26:19;17.31;73.28
78611;SHT30;67932;50.474;4.436;2023-06-24T02:28:46;17.38;73.51
78611;SHT30;67932;50.474;4.436;2023-06-24T02:31:13;17.38;73.20
78611;SHT30;67932;50.474;4.436;2023-06-24T02:33:40;17.28;73.50
78611;SHT30;67932;50.474;4.436;2023-06-24T02:36:07;17.23;73.97
78611;SHT30;67932;50.474;4.436;2023-06-24T02:38:35;17.17;74.00
78611;SHT30;67932;50.474;4.436;2023-06-24T02:41:01;17.15;74.13
78611;SHT30;67932;50.474;4.436;2023-06-24T02:43:30;17.08;73.85
78611;SHT30;67932;50.474;4.436;2023-06-24T02:45:59;17.03;74.48
78611;SHT30;67932;50.474;4.436;2023-06-24T02:48:29;17.04;74.31
78611;SHT30;67932;50.474;4.436;2023-06-24T02:50:58;16.99;73.82
78611;SHT30;67932;50.474;4.436;2023-06-24T02:53:25;17.00;73.78
78611;SHT30;67932;50.474;4.436;2023-06-24T02:55:52;17.08;73.60
78611;SHT30;67932;50.474;4.436;2023-06-24T02:58:20;17.08;73.35
78611;SHT30;67932;50.474;4.436;2023-06-24T03:00:47;17.04;73.52
78611;SHT30;67932;50.474;4.436;2023-06-24T03:03:15;16.95;73.88
78611;SHT30;67932;50.474;4.436;2023-06-24T03:05:43;16.97;74.14
78611;SHT30;67932;50.474;4.436;2023-06-24T03:08:11;16.85;74.27
78611;SHT30;67932;50.474;4.436;2023-06-24T03:10:37;16.87;74.72
78611;SHT30;67932;50.474;4.436;2023-06-24T03:13:04;16.76;74.48
78611;SHT30;67932;50.474;4.436;2023-06-24T03:15:30;16.81;74.61
78611;SHT30;67932;50.474;4.436;2023-06-24T03:17:57;16.83;74.52
78611;SHT30;67932;50.474;4.436;2023-06-24T03:20:23;16.77;74.70
78611;SHT30;67932;50.474;4.436;2023-06-24T03:22:50;16.70;74.94
78611;SHT30;67932;50.474;4.436;2023-06-24T03:25:18;16.70;74.83
78611;SHT30;67932;50.474;4.436;2023-06-24T03:27:44;16.66;75.42
78611;SHT30;67932;50.474;4.436;2023-06-24T03:30:12;16.55;75.58
78611;SHT30;67932;50.474;4.436;2023-06-24T03:32:40;16.49;75.44
78611;SHT30;67932;50.474;4.436;2023-06-24T03:35:12;16.52;75.65
78611;SHT30;67932;50.474;4.436;2023-06-24T03:37:39;16.53;75.63
78611;SHT30;67932;50.474;4.436;2023-06-24T03:40:06;16.53;75.79
78611;SHT30;67932;50.474;4.436;2023-06-24T03:42:32;16.46;75.95
78611;SHT30;67932;50.474;4.436;2023-06-24T03:44:58;16.33;76.52
78611;SHT30;67932;50.474;4.436;2023-06-24T03:47:25;16.32;76.78
78611;SHT30;67932;50.474;4.436;2023-06-24T03:49:51;16.26;77.21
78611;SHT30;67932;50.474;4.436;2023-06-24T03:52:17;16.27;77.22
78611;SHT30;67932;50.474;4.436;2023-06-24T03:54:44;16.16;77.93
78611;SHT30;67932;50.474;4.436;2023-06-24T03:57:10;16.06;78.43
78611;SHT30;67932;50.474;4.436;2023-06-24T03:59:36;16.15;78.37
78611;SHT30;67932;50.474;4.436;2023-06-24T04:02:03;16.17;78.35
78611;SHT30;67932;50.474;4.436;2023-06-24T04:04:29;16.10;78.55
78611;SHT30;67932;50.474;4.436;2023-06-24T04:06:55;16.05;78.84
78611;SHT30;67932;50.474;4.436;2023-06-24T04:09:21;16.01;79.19
78611;SHT30;67932;50.474;4.436;2023-06-24T04:11:48;16.04;79.08
78611;SHT30;67932;50.474;4.436;2023-06-24T04:14:14;16.02;79.14
78611;SHT30;67932;50.474;4.436;2023-06-24T04:16:40;16.12;78.92
78611;SHT30;67932;50.474;4.436;2023-06-24T04:19:07;16.13;79.10
78611;SHT30;67932;50.474;4.436;2023-06-24T04:21:33;16.16;78.99
78611;SHT30;67932;50.474;4.436;2023-06-24T04:23:59;16.08;79.22
78611;SHT30;67932;50.474;4.436;2023-06-24T04:26:25;15.99;79.43
78611;SHT30;67932;50.474;4.436;2023-06-24T04:28:52;16.06;79.13
78611;SHT30;67932;50.474;4.436;2023-06-24T04:31:18;16.15;79.02
78611;SHT30;67932;50.474;4.436;2023-06-24T04:33:44;16.12;79.11
78611;SHT30;67932;50.474;4.436;2023-06-24T04:36:10;16.06;78.69
78611;SHT30;67932;50.474;4.436;2023-06-24T04:38:37;16.09;79.55
78611;SHT30;67932;50.474;4.436;2023-06-24T04:41:03;16.01;78.66
78611;SHT30;67932;50.474;4.436;2023-06-24T04:43:30;16.13;78.97
78611;SHT30;67932;50.474;4.436;2023-06-24T04:45:56;16.10;77.86
78611;SHT30;67932;50.474;4.436;2023-06-24T04:48:27;16.13;77.82
78611;SHT30;67932;50.474;4.436;2023-06-24T04:50:53;16.20;77.43
78611;SHT30;67932;50.474;4.436;2023-06-24T04:53:22;16.23;77.17
78611;SHT30;67932;50.474;4.436;2023-06-24T04:55:48;16.27;77.19
78611;SHT30;67932;50.474;4.436;2023-06-24T04:58:14;16.27;77.72
78611;SHT30;67932;50.474;4.436;2023-06-24T05:00:41;16.29;77.62
78611;SHT30;67932;50.474;4.436;2023-06-24T05:03:07;16.32;77.66
78611;SHT30;67932;50.474;4.436;2023-06-24T05:05:33;16.32;77.41
78611;SHT30;67932;50.474;4.436;2023-06-24T05:07:59;16.40;77.08
78611;SHT30;67932;50.474;4.436;2023-06-24T05:10:26;16.45;77.27
78611;SHT30;67932;50.474;4.436;2023-06-24T05:12:52;16.46;77.26
78611;SHT30;67932;50.474;4.436;2023-06-24T05:15:18;16.46;76.96
78611;SHT30;67932;50.474;4.436;2023-06-24T05:17:44;16.53;76.84
78611;SHT30;67932;50.474;4.436;2023-06-24T05:20:11;16.59;76.37
78611;SHT30;67932;50.474;4.436;2023-06-24T05:22:37;16.59;76.36
78611;SHT30;67932;50.474;4.436;2023-06-24T05:25:04;16.67;74.80
78611;SHT30;67932;50.474;4.436;2023-06-24T05:27:30;16.77;74.84
78611;SHT30;67932;50.474;4.436;2023-06-24T05:29:57;16.81;75.12
78611;SHT30;67932;50.474;4.436;2023-06-24T05:32:23;16.81;74.16
78611;SHT30;67932;50.474;4.436;2023-06-24T05:34:50;16.87;74.75
78611;SHT30;67932;50.474;4.436;2023-06-24T05:37:16;16.85;74.92
78611;SHT30;67932;50.474;4.436;2023-06-24T05:39:44;16.81;74.09
78611;SHT30;67932;50.474;4.436;2023-06-24T05:42:10;16.94;73.73
78611;SHT30;67932;50.474;4.436;2023-06-24T05:44:37;16.99;73.57
78611;SHT30;67932;50.474;4.436;2023-06-24T05:47:03;16.97;73.07
78611;SHT30;67932;50.474;4.436;2023-06-24T05:49:29;17.08;72.88
78611;SHT30;67932;50.474;4.436;2023-06-24T05:51:56;17.15;73.03
78611;SHT30;67932;50.474;4.436;2023-06-24T05:54:23;17.24;71.96
78611;SHT30;67932;50.474;4.436;2023-06-24T05:56:49;17.27;73.13
78611;SHT30;67932;50.474;4.436;2023-06-24T05:59:16;17.27;72.47
78611;SHT30;67932;50.474;4.436;2023-06-24T06:01:42;17.25;71.93
78611;SHT30;67932;50.474;4.436;2023-06-24T06:04:08;17.39;71.60
78611;SHT30;67932;50.474;4.436;2023-06-24T06:06:36;17.39;71.05
78611;SHT30;67932;50.474;4.436;2023-06-24T06:09:03;17.42;71.98
78611;SHT30;67932;50.474;4.436;2023-06-24T06:11:31;17.54;70.96
78611;SHT30;67932;50.474;4.436;2023-06-24T06:13:57;17.55;69.69
78611;SHT30;67932;50.474;4.436;2023-06-24T06:16:25;17.59;69.27
78611;SHT30;67932;50.474;4.436;2023-06-24T06:18:51;17.54;69.51
78611;SHT30;67932;50.474;4.436;2023-06-24T06:21:17;17.59;69.53
78611;SHT30;67932;50.474;4.436;2023-06-24T06:23:44;17.54;69.17
78611;SHT30;67932;50.474;4.436;2023-06-24T06:26:10;17.58;69.50
78611;SHT30;67932;50.474;4.436;2023-06-24T06:28:36;17.68;68.67
78611;SHT30;67932;50.474;4.436;2023-06-24T06:31:02;17.78;69.32
78611;SHT30;67932;50.474;4.436;2023-06-24T06:33:29;17.83;69.35
78611;SHT30;67932;50.474;4.436;2023-06-24T06:35:55;17.79;69.47
78611;SHT30;67932;50.474;4.436;2023-06-24T06:38:21;17.86;69.82
78611;SHT30;67932;50.474;4.436;2023-06-24T06:40:47;17.88;69.89
78611;SHT30;67932;50.474;4.436;2023-06-24T06:43:14;18.00;69.95
78611;SHT30;67932;50.474;4.436;2023-06-24T06:45:40;18.08;69.65
78611;SHT30;67932;50.474;4.436;2023-06-24T06:48:06;18.12;69.63
78611;SHT30;67932;50.474;4.436;2023-06-24T06:50:34;18.06;69.16
78611;SHT30;67932;50.474;4.436;2023-06-24T06:53:00;18.12;69.40
78611;SHT30;67932;50.474;4.436;2023-06-24T06:55:27;18.30;68.24
78611;SHT30;67932;50.474;4.436;2023-06-24T06:57:53;18.44;68.14
78611;SHT30;67932;50.474;4.436;2023-06-24T07:00:20;18.34;68.23
78611;SHT30;67932;50.474;4.436;2023-06-24T07:02:46;18.46;68.40
78611;SHT30;67932;50.474;4.436;2023-06-24T07:05:12;18.53;67.36
78611;SHT30;67932;50.474;4.436;2023-06-24T07:07:38;18.64;67.29
78611;SHT30;67932;50.474;4.436;2023-06-24T07:10:05;18.68;66.19
78611;SHT30;67932;50.474;4.436;2023-06-24T07:12:32;18.75;64.79
78611;SHT30;67932;50.474;4.436;2023-06-24T07:14:58;18.91;64.15
78611;SHT30;67932;50.474;4.436;2023-06-24T07:17:25;18.91;64.54
78611;SHT30;67932;50.474;4.436;2023-06-24T07:19:51;18.97;65.12
78611;SHT30;67932;50.474;4.436;2023-06-24T07:22:17;19.00;64.51
78611;SHT30;67932;50.474;4.436;2023-06-24T07:24:43;19.11;62.64
78611;SHT30;67932;50.474;4.436;2023-06-24T07:27:10;19.14;61.35
78611;SHT30;67932;50.474;4.436;2023-06-24T07:29:36;19.28;61.28
78611;SHT30;67932;50.474;4.436;2023-06-24T07:32:02;19.25;60.71
78611;SHT30;67932;50.474;4.436;2023-06-24T07:34:30;19.29;60.57
78611;SHT30;67932;50.474;4.436;2023-06-24T07:36:56;19.35;60.12
78611;SHT30;67932;50.474;4.436;2023-06-24T07:39:23;19.42;60.25
78611;SHT30;67932;50.474;4.436;2023-06-24T07:41:49;19.55;58.52
78611;SHT30;67932;50.474;4.436;2023-06-24T07:44:15;19.65;58.36
78611;SHT30;67932;50.474;4.436;2023-06-24T07:46:42;19.73;57.41
78611;SHT30;67932;50.474;4.436;2023-06-24T07:49:09;19.85;57.90
78611;SHT30;67932;50.474;4.436;2023-06-24T07:51:35;19.83;58.55
78611;SHT30;67932;50.474;4.436;2023-06-24T07:54:01;19.94;57.36
78611;SHT30;67932;50.474;4.436;2023-06-24T07:56:28;19.92;56.97
78611;SHT30;67932;50.474;4.436;2023-06-24T07:58:54;19.93;57.64
78611;SHT30;67932;50.474;4.436;2023-06-24T08:01:20;19.97;57.42
78611;SHT30;67932;50.474;4.436;2023-06-24T08:03:47;20.08;57.60
78611;SHT30;67932;50.474;4.436;2023-06-24T08:06:13;20.05;57.69
78611;SHT30;67932;50.474;4.436;2023-06-24T08:08:39;20.02;57.51
78611;SHT30;67932;50.474;4.436;2023-06-24T08:11:07;19.97;57.14
78611;SHT30;67932;50.474;4.436;2023-06-24T08:13:33;20.10;58.54
78611;SHT30;67932;50.474;4.436;2023-06-24T08:15:59;20.23;57.78
78611;SHT30;67932;50.474;4.436;2023-06-24T08:18:25;20.16;57.07
78611;SHT30;67932;50.474;4.436;2023-06-24T08:20:52;20.17;57.20
78611;SHT30;67932;50.474;4.436;2023-06-24T08:23:18;20.36;56.02
78611;SHT30;67932;50.474;4.436;2023-06-24T08:25:44;20.29;56.69
78611;SHT30;67932;50.474;4.436;2023-06-24T08:28:11;20.37;57.01
78611;SHT30;67932;50.474;4.436;2023-06-24T08:30:39;20.48;56.50
78611;SHT30;67932;50.474;4.436;2023-06-24T08:33:05;20.53;56.63
78611;SHT30;67932;50.474;4.436;2023-06-24T08:35:31;20.70;56.56
78611;SHT30;67932;50.474;4.436;2023-06-24T08:37:57;20.60;55.84
78611;SHT30;67932;50.474;4.436;2023-06-24T08:40:24;20.66;56.10
78611;SHT30;67932;50.474;4.436;2023-06-24T08:42:50;20.78;53.96
78611;SHT30;67932;50.474;4.436;2023-06-24T08:45:16;20.78;53.14
78611;SHT30;67932;50.474;4.436;2023-06-24T08:47:43;20.83;52.74
78611;SHT30;67932;50.474;4.436;2023-06-24T08:50:13;20.99;52.02
78611;SHT30;67932;50.474;4.436;2023-06-24T08:52:48;20.94;49.81
78611;SHT30;67932;50.474;4.436;2023-06-24T08:55:17;20.97;51.39
78611;SHT30;67932;50.474;4.436;2023-06-24T08:57:46;20.95;51.00
78611;SHT30;67932;50.474;4.436;2023-06-24T09:00:13;20.90;51.39
78611;SHT30;67932;50.474;4.436;2023-06-24T09:02:40;20.98;52.17
78611;SHT30;67932;50.474;4.436;2023-06-24T09:05:07;21.22;51.08
78611;SHT30;67932;50.474;4.436;2023-06-24T09:07:34;21.27;51.15
78611;SHT30;67932;50.474;4.436;2023-06-24T09:10:00;21.32;53.25
78611;SHT30;67932;50.474;4.436;2023-06-24T09:12:27;21.32;48.94
78611;SHT30;67932;50.474;4.436;2023-06-24T09:14:54;21.39;49.04
78611;SHT30;67932;50.474;4.436;2023-06-24T09:17:20;21.46;52.20
78611;SHT30;67932;50.474;4.436;2023-06-24T09:19:49;21.49;49.51
78611;SHT30;67932;50.474;4.436;2023-06-24T09:22:15;21.49;50.15
78611;SHT30;67932;50.474;4.436;2023-06-24T09:24:48;21.51;47.31
78611;SHT30;67932;50.474;4.436;2023-06-24T09:27:17;21.66;46.79
78611;SHT30;67932;50.474;4.436;2023-06-24T09:29:45;21.61;48.60
78611;SHT30;67932;50.474;4.436;2023-06-24T09:32:13;21.92;47.33
78611;SHT30;67932;50.474;4.436;2023-06-24T09:34:39;21.89;47.76
78611;SHT30;67932;50.474;4.436;2023-06-24T09:37:06;21.83;47.65
78611;SHT30;67932;50.474;4.436;2023-06-24T09:39:37;21.83;47.92
78611;SHT30;67932;50.474;4.436;2023-06-24T09:42:05;22.02;45.45
78611;SHT30;67932;50.474;4.436;2023-06-24T09:44:33;22.02;48.17
78611;SHT30;67932;50.474;4.436;2023-06-24T09:46:59;21.99;45.60
78611;SHT30;67932;50.474;4.436;2023-06-24T09:49:25;21.97;45.34
78611;SHT30;67932;50.474;4.436;2023-06-24T09:51:59;22.13;49.07
78611;SHT30;67932;50.474;4.436;2023-06-24T09:54:26;22.18;45.80
78611;SHT30;67932;50.474;4.436;2023-06-24T09:56:58;22.14;44.70
78611;SHT30;67932;50.474;4.436;2023-06-24T09:59:25;22.17;44.81
78611;SHT30;67932;50.474;4.436;2023-06-24T10:01:53;22.12;45.52
78611;SHT30;67932;50.474;4.436;2023-06-24T10:04:21;22.14;46.41
78611;SHT30;67932;50.474;4.436;2023-06-24T10:06:50;22.13;47.33
78611;SHT30;67932;50.474;4.436;2023-06-24T10:09:17;22.24;46.63
78611;SHT30;67932;50.474;4.436;2023-06-24T10:11:51;22.33;46.78
78611;SHT30;67932;50.474;4.436;2023-06-24T10:14:18;22.29;46.06
78611;SHT30;67932;50.474;4.436;2023-06-24T10:16:45;22.29;47.37
78611;SHT30;67932;50.474;4.436;2023-06-24T10:19:20;22.47;44.65
78611;SHT30;67932;50.474;4.436;2023-06-24T10:21:58;22.71;45.46
78611;SHT30;67932;50.474;4.436;2023-06-24T10:24:33;22.67;46.47
78611;SHT30;67932;50.474;4.436;2023-06-24T10:27:08;22.80;45.39
78611;SHT30;67932;50.474;4.436;2023-06-24T10:29:38;22.92;45.76
78611;SHT30;67932;50.474;4.436;2023-06-24T10:32:06;23.18;44.98
78611;SHT30;67932;50.474;4.436;2023-06-24T10:34:43;23.43;43.30
78611;SHT30;67932;50.474;4.436;2023-06-24T10:37:21;23.16;43.06
78611;SHT30;67932;50.474;4.436;2023-06-24T10:39:55;23.22;43.44
78611;SHT30;67932;50.474;4.436;2023-06-24T10:45:18;23.49;44.13
78611;SHT30;67932;50.474;4.436;2023-06-24T10:47:49;23.38;43.18
78611;SHT30;67932;50.474;4.436;2023-06-24T10:50:20;23.35;43.47
78611;SHT30;67932;50.474;4.436;2023-06-24T10:52:47;23.51;43.63
78611;SHT30;67932;50.474;4.436;2023-06-24T10:55:18;23.99;41.89
78611;SHT30;67932;50.474;4.436;2023-06-24T10:57:45;24.12;40.87
78611;SHT30;67932;50.474;4.436;2023-06-24T11:00:12;23.97;41.59
78611;SHT30;67932;50.474;4.436;2023-06-24T11:02:39;23.97;41.10
78611;SHT30;67932;50.474;4.436;2023-06-24T11:05:06;24.05;40.92
78611;SHT30;67932;50.474;4.436;2023-06-24T11:07:34;24.02;41.81
78611;SHT30;67932;50.474;4.436;2023-06-24T11:10:07;23.90;41.02
78611;SHT30;67932;50.474;4.436;2023-06-24T11:12:36;23.79;41.70
78611;SHT30;67932;50.474;4.436;2023-06-24T11:15:04;23.73;41.24
78611;SHT30;67932;50.474;4.436;2023-06-24T11:17:32;23.87;42.09
78611;SHT30;67932;50.474;4.436;2023-06-24T11:19:59;23.75;41.75
78611;SHT30;67932;50.474;4.436;2023-06-24T11:22:26;23.85;42.83
78611;SHT30;67932;50.474;4.436;2023-06-24T11:24:53;24.20;41.94
78611;SHT30;67932;50.474;4.436;2023-06-24T11:27:28;24.39;41.05
78611;SHT30;67932;50.474;4.436;2023-06-24T11:29:57;24.46;41.14
78611;SHT30;67932;50.474;4.436;2023-06-24T11:32:43;24.27;39.84
78611;SHT30;67932;50.474;4.436;2023-06-24T11:35:10;24.21;40.57
78611;SHT30;67932;50.474;4.436;2023-06-24T11:37:40;24.16;41.19
78611;SHT30;67932;50.474;4.436;2023-06-24T11:40:08;24.36;39.63
78611;SHT30;67932;50.474;4.436;2023-06-24T11:42:40;24.46;39.60
78611;SHT30;67932;50.474;4.436;2023-06-24T11:45:09;24.05;38.65
78611;SHT30;67932;50.474;4.436;2023-06-24T11:47:36;24.21;39.30
78611;SHT30;67932;50.474;4.436;2023-06-24T11:50:04;24.44;40.85
78611;SHT30;67932;50.474;4.436;2023-06-24T11:52:46;25.01;40.85
78611;SHT30;67932;50.474;4.436;2023-06-24T11:55:22;26.30;38.54
78611;SHT30;67932;50.474;4.436;2023-06-24T12:00:28;26.23;38.97
78611;SHT30;67932;50.474;4.436;2023-06-24T12:03:04;26.48;39.21
78611;SHT30;67932;50.474;4.436;2023-06-24T12:05:35;26.23;37.22
78611;SHT30;67932;50.474;4.436;2023-06-24T12:08:12;25.89;38.21
78611;SHT30;67932;50.474;4.436;2023-06-24T12:10:41;25.50;37.79
78611;SHT30;67932;50.474;4.436;2023-06-24T12:13:09;25.85;36.24
78611;SHT30;67932;50.474;4.436;2023-06-24T12:15:35;26.60;35.14
78611;SHT30;67932;50.474;4.436;2023-06-24T12:18:02;27.04;33.85
78611;SHT30;67932;50.474;4.436;2023-06-24T12:20:30;26.92;33.35
78611;SHT30;67932;50.474;4.436;2023-06-24T12:22:56;27.50;33.45
78611;SHT30;67932;50.474;4.436;2023-06-24T12:25:23;27.59;34.31
78611;SHT30;67932;50.474;4.436;2023-06-24T12:27:50;28.64;33.36
78611;SHT30;67932;50.474;4.436;2023-06-24T12:30:16;29.31;32.42
78611;SHT30;67932;50.474;4.436;2023-06-24T12:32:43;30.17;31.02
78611;SHT30;67932;50.474;4.436;2023-06-24T12:35:10;29.67;32.58
78611;SHT30;67932;50.474;4.436;2023-06-24T12:37:36;31.02;30.29
78611;SHT30;67932;50.474;4.436;2023-06-24T12:40:03;31.01;30.31
78611;SHT30;67932;50.474;4.436;2023-06-24T12:42:30;31.80;28.33
78611;SHT30;67932;50.474;4.436;2023-06-24T12:44:57;31.56;28.74
78611;SHT30;67932;50.474;4.436;2023-06-24T12:47:23;31.96;28.68
78611;SHT30;67932;50.474;4.436;2023-06-24T12:49:50;29.43;32.31
78611;SHT30;67932;50.474;4.436;2023-06-24T12:52:16;30.10;30.22
78611;SHT30;67932;50.474;4.436;2023-06-24T12:54:43;29.08;31.36
78611;SHT30;67932;50.474;4.436;2023-06-24T12:57:09;30.81;28.87
78611;SHT30;67932;50.474;4.436;2023-06-24T12:59:35;31.42;28.40
78611;SHT30;67932;50.474;4.436;2023-06-24T13:02:01;32.06;28.34
78611;SHT30;67932;50.474;4.436;2023-06-24T13:04:28;31.12;28.91
78611;SHT30;67932;50.474;4.436;2023-06-24T13:06:54;32.24;27.05
78611;SHT30;67932;50.474;4.436;2023-06-24T13:09:22;32.30;26.26
78611;SHT30;67932;50.474;4.436;2023-06-24T13:11:48;32.27;25.67
78611;SHT30;67932;50.474;4.436;2023-06-24T13:14:15;31.76;26.15
78611;SHT30;67932;50.474;4.436;2023-06-24T13:16:41;32.21;27.80
78611;SHT30;67932;50.474;4.436;2023-06-24T13:19:08;32.72;26.28
78611;SHT30;67932;50.474;4.436;2023-06-24T13:21:34;32.20;27.06
78611;SHT30;67932;50.474;4.436;2023-06-24T13:24:00;30.98;28.19
78611;SHT30;67932;50.474;4.436;2023-06-24T13:26:27;32.64;27.09
78611;SHT30;67932;50.474;4.436;2023-06-24T13:28:53;32.95;26.41
78611;SHT30;67932;50.474;4.436;2023-06-24T13:31:20;32.91;26.83
78611;SHT30;67932;50.474;4.436;2023-06-24T13:33:46;33.00;27.20
78611;SHT30;67932;50.474;4.436;2023-06-24T13:36:30;32.14;26.62
78611;SHT30;67932;50.474;4.436;2023-06-24T13:38:57;32.95;26.12
78611;SHT30;67932;50.474;4.436;2023-06-24T13:41:23;31.96;27.05
78611;SHT30;67932;50.474;4.436;2023-06-24T13:43:52;31.52;27.57
78611;SHT30;67932;50.474;4.436;2023-06-24T13:46:18;31.56;26.60
78611;SHT30;67932;50.474;4.436;2023-06-24T13:48:44;31.66;24.17
78611;SHT30;67932;50.474;4.436;2023-06-24T13:51:11;33.01;25.50
78611;SHT30;67932;50.474;4.436;2023-06-24T13:53:37;33.49;24.70
78611;SHT30;67932;50.474;4.436;2023-06-24T13:56:03;33.82;25.18
78611;SHT30;67932;50.474;4.436;2023-06-24T13:58:30;33.65;25.86
78611;SHT30;67932;50.474;4.436;2023-06-24T14:00:56;32.17;28.08
78611;SHT30;67932;50.474;4.436;2023-06-24T14:03:24;33.68;26.69
78611;SHT30;67932;50.474;4.436;2023-06-24T14:05:50;33.22;27.36
78611;SHT30;67932;50.474;4.436;2023-06-24T14:08:17;33.62;28.61
78611;SHT30;67932;50.474;4.436;2023-06-24T14:10:43;34.30;28.19
78611;SHT30;67932;50.474;4.436;2023-06-24T14:13:09;33.86;28.57
78611;SHT30;67932;50.474;4.436;2023-06-24T14:15:35;34.26;28.05
78611;SHT30;67932;50.474;4.436;2023-06-24T14:18:02;34.17;28.26
78611;SHT30;67932;50.474;4.436;2023-06-24T14:20:28;33.83;28.37
78611;SHT30;67932;50.474;4.436;2023-06-24T14:22:55;32.21;31.45
78611;SHT30;67932;50.474;4.436;2023-06-24T14:25:21;33.63;29.14
78611;SHT30;67932;50.474;4.436;2023-06-24T14:27:47;33.76;28.54
78611;SHT30;67932;50.474;4.436;2023-06-24T14:30:13;33.68;28.37
78611;SHT30;67932;50.474;4.436;2023-06-24T14:32:39;33.65;30.01
78611;SHT30;67932;50.474;4.436;2023-06-24T14:35:06;33.88;28.65
78611;SHT30;67932;50.474;4.436;2023-06-24T14:37:33;33.75;28.67
78611;SHT30;67932;50.474;4.436;2023-06-24T14:39:59;34.05;28.69
78611;SHT30;67932;50.474;4.436;2023-06-24T14:42:25;34.33;28.07
78611;SHT30;67932;50.474;4.436;2023-06-24T14:44:52;34.26;28.00
78611;SHT30;67932;50.474;4.436;2023-06-24T14:47:18;34.54;27.45
78611;SHT30;67932;50.474;4.436;2023-06-24T14:49:44;34.33;27.74
78611;SHT30;67932;50.474;4.436;2023-06-24T14:52:10;34.37;28.17
78611;SHT30;67932;50.474;4.436;2023-06-24T14:54:37;34.20;27.86
78611;SHT30;67932;50.474;4.436;2023-06-24T14:57:03;33.89;28.16
78611;SHT30;67932;50.474;4.436;2023-06-24T14:59:29;34.27;28.25
78611;SHT30;67932;50.474;4.436;2023-06-24T15:01:56;34.29;27.54
78611;SHT30;67932;50.474;4.436;2023-06-24T15:04:22;33.76;28.62
78611;SHT30;67932;50.474;4.436;2023-06-24T15:06:48;33.58;29.33
78611;SHT30;67932;50.474;4.436;2023-06-24T15:09:14;34.12;28.43
78611;SHT30;67932;50.474;4.436;2023-06-24T15:11:41;33.95;28.17
78611;SHT30;67932;50.474;4.436;2023-06-24T15:14:07;34.29;28.22
78611;SHT30;67932;50.474;4.436;2023-06-24T15:16:33;34.60;27.16
78611;SHT30;67932;50.474;4.436;2023-06-24T15:19:00;34.33;27.86
78611;SHT30;67932;50.474;4.436;2023-06-24T15:21:26;34.23;27.57
78611;SHT30;67932;50.474;4.436;2023-06-24T15:23:52;34.57;27.10
78611;SHT30;67932;50.474;4.436;2023-06-24T15:26:18;33.85;28.09
78611;SHT30;67932;50.474;4.436;2023-06-24T15:28:46;33.99;28.46
78611;SHT30;67932;50.474;4.436;2023-06-24T15:31:12;34.06;28.92
78611;SHT30;67932;50.474;4.436;2023-06-24T15:33:38;34.40;27.62
78611;SHT30;67932;50.474;4.436;2023-06-24T15:36:05;34.23;28.19
78611;SHT30;67932;50.474;4.436;2023-06-24T15:38:31;34.35;27.57
78611;SHT30;67932;50.474;4.436;2023-06-24T15:40:57;33.88;28.44
78611;SHT30;67932;50.474;4.436;2023-06-24T15:43:23;34.10;27.81
78611;SHT30;67932;50.474;4.436;2023-06-24T15:45:50;34.29;28.01
78611;SHT30;67932;50.474;4.436;2023-06-24T15:48:16;34.27;27.79